YWLM

Newcastle Airport

Williamtown, Australia
TAF YWLM 211709Z 2118/2218 33005KT 0500 FG OVC002 BECMG 2122/2124 29007KT 9999 SCT020 FM220600 03005KT 9999 FEW030 FM221200 33005KT CAVOK PROB30 2200/2201 2000 BR BKN002
Issued Valid From Valid To
Jun-21 @ 17:09 UTC
(55 minutes ago)
Jun-21 @ 18:00 UTC
(4 minutes ago)
Jun-22 @ 18:00 UTC
(in 24 hours)
Jun-21 @ 18:00 to Jun-21 @ 22:00
TAF YWLM 211709Z 2118/2218 33005KT 0500 FG OVC002
Wind Visibility Clouds Conditions
330° at 5 knots 499 meters
  • Overcast at 200' AGL
  • Fog
Becoming Jun-21 @ 22:00 to Jun-22 @ 06:00
BECMG 2122/2124 29007KT 9999 SCT020
Wind Visibility Clouds Conditions
290° at 7 knots 10,000+ meters
  • Scattered at 2,000' AGL
  • Fog
Probable  (Probability 30%) Jun-22 @ 00:00 to Jun-22 @ 01:00
PROB30 2200/2201 2000 BR BKN002
Visibility Clouds Conditions
1,996 meters
  • Broken at 200' AGL
  • Mist
From Jun-22 @ 06:00 to Jun-22 @ 12:00
FM220600 03005KT 9999 FEW030
Wind Visibility Clouds
30° at 5 knots 10,000+ meters
  • Few at 3,000' AGL
From Jun-22 @ 12:00 to Jun-22 @ 18:00
FM221200 33005KT CAVOK
Wind Visibility Clouds Conditions
330° at 5 knots 10,000+ meters
  • No significant clouds
TAF YWLM 211709Z 2118/2218 33005KT 0500 FG OVC002 BECMG 2122/2124 29007KT 9999 SCT020 FM220600 03005KT 9999 FEW030 FM221200 33005KT CAVOK PROB30 2200/2201 2000 BR BKN002
Issued Jun-21 @ 17:09 UTC
(55 minutes ago)
Valid From Jun-21 @ 18:00 UTC
(4 minutes ago)
Valid To Jun-22 @ 18:00 UTC
(in 24 hours)
Jun-21 @ 18:00 - Jun-21 @ 22:00
Wind Visibility
330° at 5 knots 499 meters
Clouds
  • Overcast at 200' AGL
Conditions
  • Fog
Becoming Jun-21 @ 22:00 - Jun-22 @ 06:00
Wind Visibility
290° at 7 knots 10,000+ meters
Clouds
  • Scattered at 2,000' AGL
Conditions
  • Fog
Probability 30% Probable Jun-22 @ 00:00 - Jun-22 @ 01:00
Clouds
  • Broken at 200' AGL
Conditions
  • Mist
From Jun-22 @ 06:00 - Jun-22 @ 12:00
Wind Visibility
30° at 5 knots 10,000+ meters
Clouds
  • Few at 3,000' AGL
From Jun-22 @ 12:00 - Jun-22 @ 18:00
Wind Visibility
330° at 5 knots 10,000+ meters
Clouds
  • No significant clouds
Conditions